<?xml version="1.0" encoding="UTF-8" standalone="no" ?>
<gpx xmlns="http://www.topografix.com/GPX/1/1" xmlns:xsi="http://www.w3.org/2001/XMLSchema-instance" xsi:schemaLocation="http://www.topografix.com/GPX/1/1 http://www.topografix.com/GPX/1/1/gpx.xsd" version="1.1" creator="VisuGPX - https://www.visugpx.com">
  <metadata>
    <name>Bonnet Vert</name>
    <desc><![CDATA[Neige sur le haut et single parfait sur le bas de la descente.]]></desc>
  </metadata>
  <trk>
    <name><![CDATA[06-FEV-16 14:02:50]]></name>
    <trkseg>
      <trkpt lat="44.38697" lon="6.63611">
        <ele>1125.84</ele>
        <time>2016-02-06T10:06:56Z</time>
      </trkpt>
      <trkpt lat="44.38723" lon="6.63651">
        <ele>1132.09</ele>
        <time>2016-02-06T10:07:56Z</time>
      </trkpt>
      <trkpt lat="44.38751" lon="6.63921">
        <ele>1131.13</ele>
        <time>2016-02-06T10:08:56Z</time>
      </trkpt>
      <trkpt lat="44.38729" lon="6.64122">
        <ele>1132.09</ele>
        <time>2016-02-06T10:09:56Z</time>
      </trkpt>
      <trkpt lat="44.38741" lon="6.64354">
        <ele>1134.49</ele>
        <time>2016-02-06T10:10:56Z</time>
      </trkpt>
      <trkpt lat="44.38878" lon="6.64438">
        <ele>1144.59</ele>
        <time>2016-02-06T10:11:56Z</time>
      </trkpt>
      <trkpt lat="44.3888" lon="6.64603">
        <ele>1158.05</ele>
        <time>2016-02-06T10:12:56Z</time>
      </trkpt>
      <trkpt lat="44.389" lon="6.64773">
        <ele>1171.5</ele>
        <time>2016-02-06T10:13:56Z</time>
      </trkpt>
      <trkpt lat="44.38932" lon="6.64949">
        <ele>1184.48</ele>
        <time>2016-02-06T10:14:56Z</time>
      </trkpt>
      <trkpt lat="44.38938" lon="6.64982">
        <ele>1184.48</ele>
        <time>2016-02-06T10:15:55Z</time>
      </trkpt>
      <trkpt lat="44.38949" lon="6.6499">
        <ele>1184.96</ele>
        <time>2016-02-06T10:16:56Z</time>
      </trkpt>
      <trkpt lat="44.38977" lon="6.64799">
        <ele>1199.38</ele>
        <time>2016-02-06T10:17:56Z</time>
      </trkpt>
      <trkpt lat="44.39019" lon="6.64804">
        <ele>1208.51</ele>
        <time>2016-02-06T10:18:56Z</time>
      </trkpt>
      <trkpt lat="44.39072" lon="6.64979">
        <ele>1212.36</ele>
        <time>2016-02-06T10:19:56Z</time>
      </trkpt>
      <trkpt lat="44.39101" lon="6.64797">
        <ele>1225.34</ele>
        <time>2016-02-06T10:20:56Z</time>
      </trkpt>
      <trkpt lat="44.39165" lon="6.64938">
        <ele>1231.11</ele>
        <time>2016-02-06T10:21:56Z</time>
      </trkpt>
      <trkpt lat="44.39178" lon="6.65115">
        <ele>1244.56</ele>
        <time>2016-02-06T10:22:56Z</time>
      </trkpt>
      <trkpt lat="44.39191" lon="6.65283">
        <ele>1253.7</ele>
        <time>2016-02-06T10:23:56Z</time>
      </trkpt>
      <trkpt lat="44.39267" lon="6.65425">
        <ele>1269.08</ele>
        <time>2016-02-06T10:24:56Z</time>
      </trkpt>
      <trkpt lat="44.39347" lon="6.65535">
        <ele>1281.09</ele>
        <time>2016-02-06T10:25:56Z</time>
      </trkpt>
      <trkpt lat="44.39337" lon="6.6538">
        <ele>1291.19</ele>
        <time>2016-02-06T10:26:56Z</time>
      </trkpt>
      <trkpt lat="44.39288" lon="6.65211">
        <ele>1300.8</ele>
        <time>2016-02-06T10:27:56Z</time>
      </trkpt>
      <trkpt lat="44.39333" lon="6.6506">
        <ele>1311.38</ele>
        <time>2016-02-06T10:28:56Z</time>
      </trkpt>
      <trkpt lat="44.39346" lon="6.65138">
        <ele>1320.99</ele>
        <time>2016-02-06T10:29:56Z</time>
      </trkpt>
      <trkpt lat="44.39394" lon="6.65142">
        <ele>1334.93</ele>
        <time>2016-02-06T10:30:56Z</time>
      </trkpt>
      <trkpt lat="44.39472" lon="6.65163">
        <ele>1353.67</ele>
        <time>2016-02-06T10:31:56Z</time>
      </trkpt>
      <trkpt lat="44.39571" lon="6.65186">
        <ele>1371.46</ele>
        <time>2016-02-06T10:32:56Z</time>
      </trkpt>
      <trkpt lat="44.39662" lon="6.65203">
        <ele>1382.03</ele>
        <time>2016-02-06T10:33:56Z</time>
      </trkpt>
      <trkpt lat="44.39688" lon="6.65065">
        <ele>1386.84</ele>
        <time>2016-02-06T10:34:56Z</time>
      </trkpt>
      <trkpt lat="44.39737" lon="6.65204">
        <ele>1388.76</ele>
        <time>2016-02-06T10:35:56Z</time>
      </trkpt>
      <trkpt lat="44.39749" lon="6.65369">
        <ele>1405.58</ele>
        <time>2016-02-06T10:36:56Z</time>
      </trkpt>
      <trkpt lat="44.39759" lon="6.65506">
        <ele>1417.12</ele>
        <time>2016-02-06T10:37:56Z</time>
      </trkpt>
      <trkpt lat="44.39808" lon="6.65368">
        <ele>1432.5</ele>
        <time>2016-02-06T10:38:56Z</time>
      </trkpt>
      <trkpt lat="44.3982" lon="6.65422">
        <ele>1437.79</ele>
        <time>2016-02-06T10:39:56Z</time>
      </trkpt>
      <trkpt lat="44.39836" lon="6.65561">
        <ele>1447.4</ele>
        <time>2016-02-06T10:40:56Z</time>
      </trkpt>
      <trkpt lat="44.39914" lon="6.6558">
        <ele>1465.19</ele>
        <time>2016-02-06T10:41:56Z</time>
      </trkpt>
      <trkpt lat="44.39949" lon="6.6554">
        <ele>1478.65</ele>
        <time>2016-02-06T10:42:56Z</time>
      </trkpt>
      <trkpt lat="44.3994" lon="6.65696">
        <ele>1484.41</ele>
        <time>2016-02-06T10:43:56Z</time>
      </trkpt>
      <trkpt lat="44.39875" lon="6.65778">
        <ele>1501.24</ele>
        <time>2016-02-06T10:44:56Z</time>
      </trkpt>
      <trkpt lat="44.39843" lon="6.65769">
        <ele>1496.91</ele>
        <time>2016-02-06T10:45:56Z</time>
      </trkpt>
      <trkpt lat="44.39841" lon="6.65771">
        <ele>1498.35</ele>
        <time>2016-02-06T10:46:56Z</time>
      </trkpt>
      <trkpt lat="44.39841" lon="6.6577">
        <ele>1498.83</ele>
        <time>2016-02-06T10:47:56Z</time>
      </trkpt>
      <trkpt lat="44.3984" lon="6.65771">
        <ele>1497.87</ele>
        <time>2016-02-06T10:48:56Z</time>
      </trkpt>
      <trkpt lat="44.3984" lon="6.65771">
        <ele>1496.91</ele>
        <time>2016-02-06T10:49:56Z</time>
      </trkpt>
      <trkpt lat="44.3984" lon="6.65771">
        <ele>1495.47</ele>
        <time>2016-02-06T10:50:56Z</time>
      </trkpt>
      <trkpt lat="44.3984" lon="6.65768">
        <ele>1494.99</ele>
        <time>2016-02-06T10:51:56Z</time>
      </trkpt>
      <trkpt lat="44.3984" lon="6.65769">
        <ele>1495.95</ele>
        <time>2016-02-06T10:52:56Z</time>
      </trkpt>
      <trkpt lat="44.39839" lon="6.65768">
        <ele>1495.95</ele>
        <time>2016-02-06T10:53:56Z</time>
      </trkpt>
      <trkpt lat="44.39839" lon="6.65768">
        <ele>1495.47</ele>
        <time>2016-02-06T10:54:55Z</time>
      </trkpt>
      <trkpt lat="44.3984" lon="6.65769">
        <ele>1496.43</ele>
        <time>2016-02-06T10:55:56Z</time>
      </trkpt>
      <trkpt lat="44.3984" lon="6.65769">
        <ele>1496.43</ele>
        <time>2016-02-06T10:56:56Z</time>
      </trkpt>
      <trkpt lat="44.3984" lon="6.65769">
        <ele>1496.91</ele>
        <time>2016-02-06T10:57:56Z</time>
      </trkpt>
      <trkpt lat="44.3984" lon="6.65769">
        <ele>1496.91</ele>
        <time>2016-02-06T10:58:56Z</time>
      </trkpt>
      <trkpt lat="44.39841" lon="6.6577">
        <ele>1495.47</ele>
        <time>2016-02-06T10:59:56Z</time>
      </trkpt>
      <trkpt lat="44.39862" lon="6.65778">
        <ele>1502.2</ele>
        <time>2016-02-06T11:00:56Z</time>
      </trkpt>
      <trkpt lat="44.39889" lon="6.65791">
        <ele>1505.08</ele>
        <time>2016-02-06T11:01:56Z</time>
      </trkpt>
      <trkpt lat="44.39964" lon="6.65775">
        <ele>1510.37</ele>
        <time>2016-02-06T11:02:56Z</time>
      </trkpt>
      <trkpt lat="44.40002" lon="6.65746">
        <ele>1516.62</ele>
        <time>2016-02-06T11:03:56Z</time>
      </trkpt>
      <trkpt lat="44.40022" lon="6.65715">
        <ele>1525.27</ele>
        <time>2016-02-06T11:04:56Z</time>
      </trkpt>
      <trkpt lat="44.40041" lon="6.65635">
        <ele>1542.57</ele>
        <time>2016-02-06T11:05:56Z</time>
      </trkpt>
      <trkpt lat="44.40052" lon="6.65614">
        <ele>1538.25</ele>
        <time>2016-02-06T11:06:56Z</time>
      </trkpt>
      <trkpt lat="44.40077" lon="6.65733">
        <ele>1545.94</ele>
        <time>2016-02-06T11:07:56Z</time>
      </trkpt>
      <trkpt lat="44.40098" lon="6.65831">
        <ele>1555.55</ele>
        <time>2016-02-06T11:08:56Z</time>
      </trkpt>
      <trkpt lat="44.40115" lon="6.65966">
        <ele>1568.53</ele>
        <time>2016-02-06T11:09:56Z</time>
      </trkpt>
      <trkpt lat="44.40076" lon="6.66117">
        <ele>1574.78</ele>
        <time>2016-02-06T11:10:56Z</time>
      </trkpt>
      <trkpt lat="44.40089" lon="6.6627">
        <ele>1578.14</ele>
        <time>2016-02-06T11:11:56Z</time>
      </trkpt>
      <trkpt lat="44.40136" lon="6.66456">
        <ele>1581.03</ele>
        <time>2016-02-06T11:12:56Z</time>
      </trkpt>
      <trkpt lat="44.40138" lon="6.66682">
        <ele>1587.75</ele>
        <time>2016-02-06T11:13:56Z</time>
      </trkpt>
      <trkpt lat="44.40177" lon="6.66827">
        <ele>1591.6</ele>
        <time>2016-02-06T11:14:56Z</time>
      </trkpt>
      <trkpt lat="44.40319" lon="6.66883">
        <ele>1592.08</ele>
        <time>2016-02-06T11:15:56Z</time>
      </trkpt>
      <trkpt lat="44.40488" lon="6.66883">
        <ele>1592.56</ele>
        <time>2016-02-06T11:16:56Z</time>
      </trkpt>
      <trkpt lat="44.40742" lon="6.67004">
        <ele>1579.58</ele>
        <time>2016-02-06T11:17:56Z</time>
      </trkpt>
      <trkpt lat="44.40825" lon="6.67121">
        <ele>1577.66</ele>
        <time>2016-02-06T11:18:56Z</time>
      </trkpt>
      <trkpt lat="44.40813" lon="6.67136">
        <ele>1574.3</ele>
        <time>2016-02-06T11:19:56Z</time>
      </trkpt>
      <trkpt lat="44.40828" lon="6.67181">
        <ele>1578.62</ele>
        <time>2016-02-06T11:20:56Z</time>
      </trkpt>
      <trkpt lat="44.40854" lon="6.67191">
        <ele>1591.12</ele>
        <time>2016-02-06T11:21:56Z</time>
      </trkpt>
      <trkpt lat="44.40909" lon="6.67114">
        <ele>1606.02</ele>
        <time>2016-02-06T11:22:56Z</time>
      </trkpt>
      <trkpt lat="44.40933" lon="6.67116">
        <ele>1623.8</ele>
        <time>2016-02-06T11:23:56Z</time>
      </trkpt>
      <trkpt lat="44.40952" lon="6.67194">
        <ele>1624.28</ele>
        <time>2016-02-06T11:24:56Z</time>
      </trkpt>
      <trkpt lat="44.40998" lon="6.67279">
        <ele>1631.98</ele>
        <time>2016-02-06T11:25:56Z</time>
      </trkpt>
      <trkpt lat="44.41056" lon="6.67298">
        <ele>1640.15</ele>
        <time>2016-02-06T11:26:56Z</time>
      </trkpt>
      <trkpt lat="44.41056" lon="6.67416">
        <ele>1651.2</ele>
        <time>2016-02-06T11:27:56Z</time>
      </trkpt>
      <trkpt lat="44.41054" lon="6.67513">
        <ele>1658.89</ele>
        <time>2016-02-06T11:28:56Z</time>
      </trkpt>
      <trkpt lat="44.41096" lon="6.67521">
        <ele>1665.14</ele>
        <time>2016-02-06T11:29:56Z</time>
      </trkpt>
      <trkpt lat="44.41127" lon="6.67527">
        <ele>1675.23</ele>
        <time>2016-02-06T11:30:56Z</time>
      </trkpt>
      <trkpt lat="44.41199" lon="6.67467">
        <ele>1688.69</ele>
        <time>2016-02-06T11:31:56Z</time>
      </trkpt>
      <trkpt lat="44.41281" lon="6.67394">
        <ele>1693.98</ele>
        <time>2016-02-06T11:32:56Z</time>
      </trkpt>
      <trkpt lat="44.41335" lon="6.67435">
        <ele>1699.75</ele>
        <time>2016-02-06T11:33:56Z</time>
      </trkpt>
      <trkpt lat="44.41349" lon="6.67548">
        <ele>1712.73</ele>
        <time>2016-02-06T11:34:56Z</time>
      </trkpt>
      <trkpt lat="44.41378" lon="6.67592">
        <ele>1725.22</ele>
        <time>2016-02-06T11:35:56Z</time>
      </trkpt>
      <trkpt lat="44.41447" lon="6.67522">
        <ele>1742.05</ele>
        <time>2016-02-06T11:36:56Z</time>
      </trkpt>
      <trkpt lat="44.41462" lon="6.67411">
        <ele>1753.58</ele>
        <time>2016-02-06T11:37:56Z</time>
      </trkpt>
      <trkpt lat="44.41504" lon="6.67436">
        <ele>1768.48</ele>
        <time>2016-02-06T11:38:56Z</time>
      </trkpt>
      <trkpt lat="44.41507" lon="6.67565">
        <ele>1779.06</ele>
        <time>2016-02-06T11:39:56Z</time>
      </trkpt>
      <trkpt lat="44.41501" lon="6.67735">
        <ele>1775.21</ele>
        <time>2016-02-06T11:40:56Z</time>
      </trkpt>
      <trkpt lat="44.41396" lon="6.6786">
        <ele>1780.98</ele>
        <time>2016-02-06T11:41:56Z</time>
      </trkpt>
      <trkpt lat="44.41378" lon="6.67878">
        <ele>1774.73</ele>
        <time>2016-02-06T11:42:56Z</time>
      </trkpt>
      <trkpt lat="44.41376" lon="6.67876">
        <ele>1772.81</ele>
        <time>2016-02-06T11:43:56Z</time>
      </trkpt>
      <trkpt lat="44.41376" lon="6.67878">
        <ele>1771.85</ele>
        <time>2016-02-06T11:44:56Z</time>
      </trkpt>
      <trkpt lat="44.41376" lon="6.67877">
        <ele>1769.92</ele>
        <time>2016-02-06T11:45:56Z</time>
      </trkpt>
      <trkpt lat="44.41376" lon="6.67875">
        <ele>1765.6</ele>
        <time>2016-02-06T11:46:56Z</time>
      </trkpt>
      <trkpt lat="44.41371" lon="6.67881">
        <ele>1766.56</ele>
        <time>2016-02-06T11:47:56Z</time>
      </trkpt>
      <trkpt lat="44.4138" lon="6.67882">
        <ele>1765.6</ele>
        <time>2016-02-06T11:48:56Z</time>
      </trkpt>
      <trkpt lat="44.41398" lon="6.6802">
        <ele>1772.81</ele>
        <time>2016-02-06T11:49:56Z</time>
      </trkpt>
      <trkpt lat="44.41323" lon="6.68111">
        <ele>1784.34</ele>
        <time>2016-02-06T11:50:56Z</time>
      </trkpt>
      <trkpt lat="44.41334" lon="6.68228">
        <ele>1773.77</ele>
        <time>2016-02-06T11:51:56Z</time>
      </trkpt>
      <trkpt lat="44.41226" lon="6.68378">
        <ele>1732.43</ele>
        <time>2016-02-06T11:52:56Z</time>
      </trkpt>
      <trkpt lat="44.41156" lon="6.68478">
        <ele>1691.58</ele>
        <time>2016-02-06T11:53:56Z</time>
      </trkpt>
      <trkpt lat="44.41086" lon="6.6862">
        <ele>1629.09</ele>
        <time>2016-02-06T11:54:56Z</time>
      </trkpt>
      <trkpt lat="44.41113" lon="6.68745">
        <ele>1605.54</ele>
        <time>2016-02-06T11:55:56Z</time>
      </trkpt>
      <trkpt lat="44.4105" lon="6.68799">
        <ele>1545.46</ele>
        <time>2016-02-06T11:56:56Z</time>
      </trkpt>
      <trkpt lat="44.41051" lon="6.68806">
        <ele>1540.17</ele>
        <time>2016-02-06T11:57:56Z</time>
      </trkpt>
      <trkpt lat="44.41046" lon="6.68808">
        <ele>1538.25</ele>
        <time>2016-02-06T11:58:56Z</time>
      </trkpt>
      <trkpt lat="44.41044" lon="6.68812">
        <ele>1534.4</ele>
        <time>2016-02-06T11:59:56Z</time>
      </trkpt>
      <trkpt lat="44.40938" lon="6.68788">
        <ele>1517.58</ele>
        <time>2016-02-06T12:00:56Z</time>
      </trkpt>
      <trkpt lat="44.40834" lon="6.68829">
        <ele>1480.09</ele>
        <time>2016-02-06T12:01:56Z</time>
      </trkpt>
      <trkpt lat="44.40905" lon="6.69">
        <ele>1461.82</ele>
        <time>2016-02-06T12:02:56Z</time>
      </trkpt>
      <trkpt lat="44.40966" lon="6.69102">
        <ele>1413.28</ele>
        <time>2016-02-06T12:03:56Z</time>
      </trkpt>
      <trkpt lat="44.41052" lon="6.69224">
        <ele>1376.26</ele>
        <time>2016-02-06T12:04:56Z</time>
      </trkpt>
      <trkpt lat="44.40891" lon="6.69368">
        <ele>1327.72</ele>
        <time>2016-02-06T12:05:56Z</time>
      </trkpt>
      <trkpt lat="44.40812" lon="6.69415">
        <ele>1302.24</ele>
        <time>2016-02-06T12:06:56Z</time>
      </trkpt>
      <trkpt lat="44.4069" lon="6.69467">
        <ele>1294.55</ele>
        <time>2016-02-06T12:07:56Z</time>
      </trkpt>
      <trkpt lat="44.40588" lon="6.69641">
        <ele>1241.2</ele>
        <time>2016-02-06T12:08:56Z</time>
      </trkpt>
      <trkpt lat="44.40706" lon="6.69773">
        <ele>1244.56</ele>
        <time>2016-02-06T12:09:56Z</time>
      </trkpt>
      <trkpt lat="44.40762" lon="6.69855">
        <ele>1262.83</ele>
        <time>2016-02-06T12:10:56Z</time>
      </trkpt>
      <trkpt lat="44.40807" lon="6.69934">
        <ele>1277.25</ele>
        <time>2016-02-06T12:11:56Z</time>
      </trkpt>
      <trkpt lat="44.40833" lon="6.70039">
        <ele>1284.94</ele>
        <time>2016-02-06T12:12:56Z</time>
      </trkpt>
      <trkpt lat="44.40852" lon="6.70156">
        <ele>1292.63</ele>
        <time>2016-02-06T12:13:56Z</time>
      </trkpt>
      <trkpt lat="44.40903" lon="6.70222">
        <ele>1301.76</ele>
        <time>2016-02-06T12:14:56Z</time>
      </trkpt>
      <trkpt lat="44.40969" lon="6.70304">
        <ele>1303.69</ele>
        <time>2016-02-06T12:15:56Z</time>
      </trkpt>
      <trkpt lat="44.41085" lon="6.70622">
        <ele>1293.59</ele>
        <time>2016-02-06T12:16:56Z</time>
      </trkpt>
      <trkpt lat="44.41124" lon="6.7087">
        <ele>1297.92</ele>
        <time>2016-02-06T12:17:56Z</time>
      </trkpt>
      <trkpt lat="44.41217" lon="6.71003">
        <ele>1308.01</ele>
        <time>2016-02-06T12:18:56Z</time>
      </trkpt>
      <trkpt lat="44.41317" lon="6.71197">
        <ele>1311.86</ele>
        <time>2016-02-06T12:19:56Z</time>
      </trkpt>
      <trkpt lat="44.4152" lon="6.71481">
        <ele>1288.78</ele>
        <time>2016-02-06T12:20:56Z</time>
      </trkpt>
      <trkpt lat="44.41452" lon="6.71662">
        <ele>1303.2</ele>
        <time>2016-02-06T12:21:56Z</time>
      </trkpt>
      <trkpt lat="44.41489" lon="6.71855">
        <ele>1290.71</ele>
        <time>2016-02-06T12:22:56Z</time>
      </trkpt>
      <trkpt lat="44.41713" lon="6.72082">
        <ele>1290.23</ele>
        <time>2016-02-06T12:23:56Z</time>
      </trkpt>
      <trkpt lat="44.418" lon="6.72203">
        <ele>1298.88</ele>
        <time>2016-02-06T12:24:56Z</time>
      </trkpt>
      <trkpt lat="44.4183" lon="6.72264">
        <ele>1312.82</ele>
        <time>2016-02-06T12:25:56Z</time>
      </trkpt>
      <trkpt lat="44.41881" lon="6.72385">
        <ele>1320.99</ele>
        <time>2016-02-06T12:26:56Z</time>
      </trkpt>
      <trkpt lat="44.41977" lon="6.7261">
        <ele>1319.07</ele>
        <time>2016-02-06T12:27:56Z</time>
      </trkpt>
      <trkpt lat="44.42103" lon="6.72832">
        <ele>1322.91</ele>
        <time>2016-02-06T12:28:56Z</time>
      </trkpt>
      <trkpt lat="44.42297" lon="6.73118">
        <ele>1295.99</ele>
        <time>2016-02-06T12:29:56Z</time>
      </trkpt>
      <trkpt lat="44.42123" lon="6.73225">
        <ele>1271.48</ele>
        <time>2016-02-06T12:30:56Z</time>
      </trkpt>
      <trkpt lat="44.42045" lon="6.73289">
        <ele>1250.81</ele>
        <time>2016-02-06T12:31:56Z</time>
      </trkpt>
      <trkpt lat="44.41893" lon="6.73324">
        <ele>1207.07</ele>
        <time>2016-02-06T12:32:56Z</time>
      </trkpt>
      <trkpt lat="44.41899" lon="6.73096">
        <ele>1214.76</ele>
        <time>2016-02-06T12:33:56Z</time>
      </trkpt>
      <trkpt lat="44.41897" lon="6.73098">
        <ele>1214.28</ele>
        <time>2016-02-06T12:34:56Z</time>
      </trkpt>
      <trkpt lat="44.41896" lon="6.73101">
        <ele>1213.8</ele>
        <time>2016-02-06T12:35:56Z</time>
      </trkpt>
      <trkpt lat="44.41823" lon="6.7309">
        <ele>1228.22</ele>
        <time>2016-02-06T12:36:56Z</time>
      </trkpt>
      <trkpt lat="44.41619" lon="6.72843">
        <ele>1221.49</ele>
        <time>2016-02-06T12:37:56Z</time>
      </trkpt>
      <trkpt lat="44.41368" lon="6.72885">
        <ele>1232.07</ele>
        <time>2016-02-06T12:38:56Z</time>
      </trkpt>
      <trkpt lat="44.41047" lon="6.72816">
        <ele>1232.55</ele>
        <time>2016-02-06T12:39:56Z</time>
      </trkpt>
      <trkpt lat="44.40807" lon="6.72408">
        <ele>1217.65</ele>
        <time>2016-02-06T12:40:56Z</time>
      </trkpt>
      <trkpt lat="44.40626" lon="6.71918">
        <ele>1210.44</ele>
        <time>2016-02-06T12:41:56Z</time>
      </trkpt>
      <trkpt lat="44.40507" lon="6.71266">
        <ele>1195.54</ele>
        <time>2016-02-06T12:42:56Z</time>
      </trkpt>
      <trkpt lat="44.40484" lon="6.70579">
        <ele>1184</ele>
        <time>2016-02-06T12:43:56Z</time>
      </trkpt>
      <trkpt lat="44.40299" lon="6.70167">
        <ele>1187.37</ele>
        <time>2016-02-06T12:44:56Z</time>
      </trkpt>
      <trkpt lat="44.40085" lon="6.69807">
        <ele>1187.85</ele>
        <time>2016-02-06T12:45:56Z</time>
      </trkpt>
      <trkpt lat="44.39879" lon="6.69357">
        <ele>1180.16</ele>
        <time>2016-02-06T12:46:56Z</time>
      </trkpt>
      <trkpt lat="44.39527" lon="6.69046">
        <ele>1173.91</ele>
        <time>2016-02-06T12:47:56Z</time>
      </trkpt>
      <trkpt lat="44.39281" lon="6.68679">
        <ele>1171.02</ele>
        <time>2016-02-06T12:48:56Z</time>
      </trkpt>
      <trkpt lat="44.39164" lon="6.68248">
        <ele>1170.54</ele>
        <time>2016-02-06T12:49:56Z</time>
      </trkpt>
      <trkpt lat="44.39152" lon="6.67769">
        <ele>1166.7</ele>
        <time>2016-02-06T12:50:56Z</time>
      </trkpt>
      <trkpt lat="44.39142" lon="6.67279">
        <ele>1161.41</ele>
        <time>2016-02-06T12:51:56Z</time>
      </trkpt>
      <trkpt lat="44.39042" lon="6.6696">
        <ele>1156.6</ele>
        <time>2016-02-06T12:52:56Z</time>
      </trkpt>
      <trkpt lat="44.38979" lon="6.66554">
        <ele>1151.32</ele>
        <time>2016-02-06T12:53:56Z</time>
      </trkpt>
      <trkpt lat="44.38839" lon="6.66132">
        <ele>1146.51</ele>
        <time>2016-02-06T12:54:56Z</time>
      </trkpt>
      <trkpt lat="44.38787" lon="6.65677">
        <ele>1147.47</ele>
        <time>2016-02-06T12:55:56Z</time>
      </trkpt>
      <trkpt lat="44.38726" lon="6.65265">
        <ele>1143.63</ele>
        <time>2016-02-06T12:56:56Z</time>
      </trkpt>
      <trkpt lat="44.3871" lon="6.65185">
        <ele>1166.22</ele>
        <time>2016-02-06T12:57:56Z</time>
      </trkpt>
      <trkpt lat="44.38628" lon="6.64813">
        <ele>1178.23</ele>
        <time>2016-02-06T12:58:56Z</time>
      </trkpt>
      <trkpt lat="44.38694" lon="6.64414">
        <ele>1139.3</ele>
        <time>2016-02-06T12:59:56Z</time>
      </trkpt>
      <trkpt lat="44.38745" lon="6.6407">
        <ele>1132.57</ele>
        <time>2016-02-06T13:00:56Z</time>
      </trkpt>
      <trkpt lat="44.38721" lon="6.63693">
        <ele>1130.65</ele>
        <time>2016-02-06T13:01:56Z</time>
      </trkpt>
    </trkseg>
  </trk>
</gpx>